createdAt,value
2022-10-17T00:08:20.015Z,11.59
2022-10-17T00:18:23.370Z,11.55
2022-10-17T00:28:27.838Z,11.47
2022-10-17T00:38:30.999Z,11.52
2022-10-17T00:48:35.501Z,11.28
2022-10-17T00:58:38.622Z,11.24
2022-10-17T01:08:43.156Z,11.14
2022-10-17T01:18:54.435Z,11.21
2022-10-17T01:29:25.296Z,11.12
2022-10-17T01:39:38.433Z,11.01
2022-10-17T01:49:44.514Z,10.81
2022-10-17T01:59:50.206Z,10.80
2022-10-17T02:09:53.337Z,10.72
2022-10-17T02:20:07.436Z,10.76
2022-10-17T02:30:14.078Z,10.79
2022-10-17T02:40:19.802Z,10.43
2022-10-17T02:50:29.996Z,10.54
2022-10-17T03:00:34.672Z,10.39
2022-10-17T03:10:37.708Z,10.28
2022-10-17T03:20:42.117Z,10.34
2022-10-17T03:30:45.151Z,10.34
2022-10-17T03:40:57.430Z,10.36
2022-10-17T03:51:01.740Z,10.21
2022-10-17T04:01:06.781Z,9.97
2022-10-17T04:11:11.667Z,10.18
2022-10-17T04:21:16.504Z,10.10
2022-10-17T04:31:19.584Z,10.14
2022-10-17T04:41:24.162Z,10.14
2022-10-17T04:51:27.257Z,10.01
2022-10-17T05:01:31.741Z,10.09
2022-10-17T05:11:34.920Z,9.96
2022-10-17T05:21:39.478Z,9.66
2022-10-17T05:31:42.576Z,9.48
2022-10-17T05:41:47.399Z,9.65
2022-10-17T05:51:50.487Z,9.95
2022-10-17T06:01:55.794Z,9.99
2022-10-17T06:11:58.916Z,10.36
2022-10-17T06:22:03.318Z,10.96
2022-10-17T06:32:08.705Z,11.42
2022-10-17T06:42:15.748Z,12.28
2022-10-17T06:52:18.885Z,14.01
2022-10-17T07:02:24.148Z,16.32
2022-10-17T07:12:27.409Z,18.52
2022-10-17T07:22:31.824Z,18.97
2022-10-17T07:32:35.883Z,18.25
2022-10-17T07:42:40.695Z,18.66
2022-10-17T07:52:43.926Z,18.17
2022-10-17T08:02:48.497Z,18.08
2022-10-17T08:12:51.583Z,17.92
2022-10-17T08:22:56.367Z,18.10
2022-10-17T08:32:59.688Z,18.46
2022-10-17T08:43:15.640Z,17.93
2022-10-17T08:53:22.515Z,18.24
2022-10-17T09:03:42.152Z,19.51
2022-10-17T09:14:00.318Z,19.16
2022-10-17T09:24:15.859Z,20.66
2022-10-17T09:34:20.388Z,20.63
2022-10-17T09:44:30.612Z,20.62
2022-10-17T09:54:43.703Z,20.45
2022-10-17T10:05:05.584Z,20.71
2022-10-17T10:15:34.895Z,20.76
2022-10-17T10:25:39.567Z,21.39
2022-10-17T10:35:42.982Z,21.84
2022-10-17T10:45:48.694Z,22.11
2022-10-17T10:55:54.962Z,22.47
2022-10-17T11:06:03.892Z,22.83
2022-10-17T11:16:28.015Z,22.60
2022-10-17T11:26:36.453Z,22.85
2022-10-17T11:36:41.810Z,23.36
2022-10-17T11:46:47.427Z,22.65
2022-10-17T11:56:54.646Z,23.15
2022-10-17T12:07:10.844Z,23.00
2022-10-17T12:17:27.035Z,23.18
2022-10-17T12:27:38.034Z,22.73
2022-10-17T12:38:29.250Z,22.65
2022-10-17T12:49:08.051Z,22.87
2022-10-17T12:59:16.686Z,23.25
2022-10-17T13:09:26.259Z,23.31
2022-10-17T13:19:33.180Z,23.44
2022-10-17T13:29:36.431Z,23.15
2022-10-17T13:39:55.153Z,23.42
2022-10-17T13:49:59.611Z,23.67
2022-10-17T14:00:10.043Z,23.78
2022-10-17T14:10:21.303Z,23.56
2022-10-17T14:20:57.468Z,23.35
2022-10-17T14:30:56.742Z,23.68
2022-10-17T14:41:30.569Z,23.25
2022-10-17T14:51:32.411Z,22.94
2022-10-17T15:01:44.686Z,22.73
2022-10-17T15:11:47.770Z,22.38
2022-10-17T15:21:52.224Z,22.12
2022-10-17T15:31:55.365Z,21.53
2022-10-17T15:41:59.939Z,21.00
2022-10-17T15:52:03.092Z,20.42
2022-10-17T16:02:12.566Z,19.95
2022-10-17T16:12:18.835Z,19.38
2022-10-17T16:22:33.615Z,18.84
2022-10-17T16:32:36.860Z,18.42
2022-10-17T16:42:41.453Z,17.94
2022-10-17T16:52:44.602Z,17.55
2022-10-17T17:02:50.092Z,17.21
2022-10-17T17:12:53.712Z,16.74
2022-10-17T17:22:58.480Z,16.50
2022-10-17T17:33:01.644Z,16.07
2022-10-17T17:43:06.132Z,15.82
2022-10-17T17:53:10.147Z,15.57
2022-10-17T18:03:14.692Z,15.21
2022-10-17T18:13:18.358Z,15.04
2022-10-17T18:23:22.910Z,14.84
2022-10-17T18:33:26.084Z,14.61
2022-10-17T18:43:30.535Z,14.38
2022-10-17T18:53:33.976Z,14.24
2022-10-17T19:03:38.920Z,14.11
2022-10-17T19:13:42.688Z,13.89
2022-10-17T19:23:51.035Z,13.81
2022-10-17T19:33:54.328Z,13.71
2022-10-17T19:43:59.283Z,13.37
2022-10-17T19:54:02.745Z,13.38
2022-10-17T20:04:07.454Z,13.30
2022-10-17T20:14:10.551Z,13.06
2022-10-17T20:24:17.007Z,12.92
2022-10-17T20:34:20.628Z,12.80
2022-10-17T20:44:25.094Z,12.76
2022-10-17T20:54:28.831Z,12.70
2022-10-17T21:04:45.945Z,12.60
2022-10-17T21:14:50.172Z,12.61
2022-10-17T21:24:54.659Z,12.56
2022-10-17T21:34:57.884Z,12.27
2022-10-17T21:45:07.416Z,12.16
2022-10-17T21:55:18.613Z,12.07
2022-10-17T22:05:23.415Z,11.99
2022-10-17T22:15:26.812Z,11.94
2022-10-17T22:25:31.376Z,11.59
2022-10-17T22:35:34.441Z,11.83
2022-10-17T22:45:39.069Z,11.76
2022-10-17T22:55:42.140Z,11.65
2022-10-17T23:05:46.640Z,11.45
2022-10-17T23:15:52.080Z,11.28
2022-10-17T23:25:56.610Z,11.28
2022-10-17T23:36:00.429Z,11.04
2022-10-17T23:46:06.471Z,11.04
2022-10-17T23:56:11.392Z,10.90
